createdAt,value
2023-08-16T00:00:15.775Z,1.70
2023-08-16T00:03:19.022Z,2.00
2023-08-16T00:06:24.077Z,2.00
2023-08-16T00:09:26.750Z,2.03
2023-08-16T00:12:29.456Z,1.90
2023-08-16T00:15:32.114Z,1.73
2023-08-16T00:18:34.847Z,2.03
2023-08-16T00:21:38.901Z,2.30
2023-08-16T00:24:41.586Z,1.90
2023-08-16T00:27:44.297Z,2.10
2023-08-16T00:30:46.968Z,2.30
2023-08-16T00:33:49.684Z,2.30
2023-08-16T00:36:53.735Z,2.23
2023-08-16T00:39:57.369Z,2.30
2023-08-16T00:43:00.065Z,1.60
2023-08-16T00:46:02.928Z,2.00
2023-08-16T00:49:06.342Z,1.90
2023-08-16T00:52:12.063Z,2.30
2023-08-16T00:55:14.800Z,2.00
2023-08-16T00:58:18.328Z,2.33
2023-08-16T01:01:21.421Z,2.03
2023-08-16T01:04:24.618Z,2.20
2023-08-16T01:07:28.603Z,2.10
2023-08-16T01:10:37.970Z,2.30
2023-08-16T01:13:51.672Z,2.03
2023-08-16T01:16:55.056Z,1.80
2023-08-16T01:19:59.292Z,2.03
2023-08-16T01:23:07.884Z,1.90
2023-08-16T01:26:17.308Z,2.20
2023-08-16T01:29:22.149Z,2.10
2023-08-16T01:32:24.875Z,2.10
2023-08-16T01:35:27.541Z,2.07
2023-08-16T01:38:30.191Z,2.03
2023-08-16T01:41:37.830Z,2.03
2023-08-16T01:44:42.294Z,2.40
2023-08-16T01:47:45.993Z,2.20
2023-08-16T01:50:49.017Z,2.10
2023-08-16T01:53:53.604Z,2.07
2023-08-16T01:56:56.231Z,2.30
2023-08-16T02:00:00.239Z,2.17
2023-08-16T02:03:03.039Z,2.43
2023-08-16T02:06:05.711Z,2.10
2023-08-16T02:09:08.356Z,2.23
2023-08-16T02:12:11.147Z,2.40
2023-08-16T02:15:15.348Z,2.23
2023-08-16T02:18:18.049Z,1.87
2023-08-16T02:21:20.688Z,2.03
2023-08-16T02:24:23.362Z,2.20
2023-08-16T02:27:26.335Z,2.43
2023-08-16T02:30:30.532Z,1.90
2023-08-16T02:33:33.795Z,2.10
2023-08-16T02:36:36.675Z,2.20
2023-08-16T02:39:39.301Z,2.40
2023-08-16T02:42:41.944Z,2.20
2023-08-16T02:45:45.945Z,2.20
2023-08-16T02:48:48.660Z,2.10
2023-08-16T02:51:51.303Z,2.10
2023-08-16T02:54:53.968Z,2.60
2023-08-16T02:57:56.608Z,2.10
2023-08-16T03:01:00.674Z,2.30
2023-08-16T03:04:03.329Z,2.40
2023-08-16T03:07:06.052Z,2.30
2023-08-16T03:10:10.060Z,2.33
2023-08-16T03:13:12.841Z,2.37
2023-08-16T03:16:16.901Z,2.43
2023-08-16T03:19:19.540Z,2.13
2023-08-16T03:22:22.167Z,2.10
2023-08-16T03:25:24.787Z,2.80
2023-08-16T03:28:27.428Z,2.10
2023-08-16T03:31:31.862Z,2.27
2023-08-16T03:34:34.492Z,2.20
2023-08-16T03:37:37.134Z,2.50
2023-08-16T03:40:39.788Z,2.50
2023-08-16T03:43:42.860Z,2.43
2023-08-16T03:46:46.893Z,2.30
2023-08-16T03:49:49.530Z,2.27
2023-08-16T03:52:52.831Z,2.20
2023-08-16T03:55:58.151Z,2.23
2023-08-16T03:59:00.794Z,2.27
2023-08-16T04:02:05.401Z,2.60
2023-08-16T04:05:12.737Z,2.50
2023-08-16T04:08:15.500Z,2.80
2023-08-16T04:11:18.143Z,3.10
2023-08-16T04:14:20.831Z,3.40
2023-08-16T04:17:24.981Z,3.10
2023-08-16T04:20:27.904Z,2.70
2023-08-16T04:23:30.555Z,2.73
2023-08-16T04:26:33.213Z,2.90
2023-08-16T04:29:35.892Z,2.77
2023-08-16T04:32:39.969Z,2.60
2023-08-16T04:35:42.756Z,3.00
2023-08-16T04:38:45.469Z,2.83
2023-08-16T04:41:48.134Z,2.83
2023-08-16T04:44:50.792Z,3.00
2023-08-16T04:47:54.817Z,3.10
2023-08-16T04:50:57.498Z,3.37
2023-08-16T04:54:00.148Z,3.73
2023-08-16T04:57:02.800Z,4.10
2023-08-16T05:00:08.671Z,4.33
2023-08-16T05:03:12.707Z,4.10
2023-08-16T05:06:15.362Z,3.63
2023-08-16T05:09:17.996Z,4.00
2023-08-16T05:12:20.673Z,4.20
2023-08-16T05:15:23.315Z,4.73
2023-08-16T05:18:27.378Z,4.77
2023-08-16T05:21:30.039Z,5.27
2023-08-16T05:24:32.703Z,4.30
2023-08-16T05:27:35.362Z,4.50
2023-08-16T05:30:37.999Z,4.97
2023-08-16T05:33:42.197Z,4.80
2023-08-16T05:36:48.655Z,4.70
2023-08-16T05:39:51.309Z,4.83
2023-08-16T05:42:55.449Z,4.93
2023-08-16T05:45:58.108Z,4.60
2023-08-16T05:49:02.846Z,4.80
2023-08-16T05:52:05.922Z,4.90
2023-08-16T05:55:09.384Z,4.23
2023-08-16T05:58:12.146Z,4.73
2023-08-16T06:01:14.837Z,4.30
2023-08-16T06:04:19.118Z,3.80
2023-08-16T06:07:22.531Z,4.53
2023-08-16T06:10:25.746Z,4.53
2023-08-16T06:13:28.401Z,4.30
2023-08-16T06:16:31.130Z,4.17
2023-08-16T06:19:35.186Z,3.67
2023-08-16T06:22:38.399Z,4.23
2023-08-16T06:25:41.119Z,3.43
2023-08-16T06:28:43.758Z,3.90
2023-08-16T06:31:48.043Z,3.47
2023-08-16T06:34:52.039Z,3.70
2023-08-16T06:37:54.669Z,3.43
2023-08-16T06:40:57.350Z,3.00
2023-08-16T06:44:00.123Z,3.30
2023-08-16T06:47:02.782Z,3.13
2023-08-16T06:50:07.591Z,3.27
2023-08-16T06:53:10.220Z,3.10
2023-08-16T06:56:13.609Z,2.87
2023-08-16T06:59:16.254Z,2.80
2023-08-16T07:02:21.014Z,2.87
2023-08-16T07:05:26.506Z,2.83
2023-08-16T07:08:29.188Z,3.17
2023-08-16T07:11:31.859Z,2.80
2023-08-16T07:14:34.559Z,2.80
2023-08-16T07:17:37.236Z,2.47
2023-08-16T07:20:41.822Z,2.50
2023-08-16T07:23:45.541Z,2.00
2023-08-16T07:26:48.174Z,2.05
2023-08-16T07:29:50.820Z,2.50
2023-08-16T07:32:53.466Z,2.08
2023-08-16T07:36:01.331Z,2.00
2023-08-16T07:39:04.215Z,2.15
2023-08-16T07:42:07.791Z,2.00
2023-08-16T07:45:11.322Z,2.83
2023-08-16T07:48:14.053Z,2.25
2023-08-16T07:51:18.083Z,1.95
2023-08-16T07:54:20.704Z,1.80
2023-08-16T07:57:23.350Z,2.05
2023-08-16T08:00:28.922Z,2.00
2023-08-16T08:03:31.657Z,2.28
2023-08-16T08:06:35.947Z,1.42
2023-08-16T08:09:38.645Z,1.60
2023-08-16T08:12:41.300Z,1.60
2023-08-16T08:15:44.022Z,1.70
2023-08-16T08:18:46.702Z,1.80
2023-08-16T08:21:50.759Z,2.33
2023-08-16T08:24:53.391Z,1.85
2023-08-16T08:27:56.065Z,1.80
2023-08-16T08:30:58.707Z,1.83
2023-08-16T08:34:01.883Z,1.85
2023-08-16T08:37:06.958Z,1.77
2023-08-16T08:40:09.835Z,1.40
2023-08-16T08:43:14.248Z,1.70
2023-08-16T08:46:17.375Z,1.90
2023-08-16T08:49:21.454Z,1.55
2023-08-16T08:52:26.458Z,1.67
2023-08-16T08:55:32.334Z,2.30
2023-08-16T08:58:35.940Z,1.65
2023-08-16T09:01:40.104Z,1.90
2023-08-16T09:04:45.476Z,1.50
2023-08-16T09:07:50.268Z,1.70
2023-08-16T09:10:53.147Z,1.80
2023-08-16T09:13:56.334Z,1.98
2023-08-16T09:16:58.979Z,1.90
2023-08-16T09:20:02.032Z,1.60
2023-08-16T09:23:06.376Z,1.50
2023-08-16T09:26:15.271Z,2.00
2023-08-16T09:29:19.634Z,2.05
2023-08-16T09:32:23.300Z,1.80
2023-08-16T09:35:30.269Z,1.73
2023-08-16T09:41:48.217Z,1.70
2023-08-16T09:44:52.300Z,1.70
2023-08-16T09:47:59.712Z,1.80
2023-08-16T09:54:13.405Z,1.73
2023-08-16T10:00:24.407Z,2.08
2023-08-16T10:03:27.511Z,1.85
2023-08-16T10:09:42.733Z,1.70
2023-08-16T10:12:48.833Z,1.75
2023-08-16T10:15:55.309Z,1.73
2023-08-16T10:19:01.253Z,1.40
2023-08-16T10:22:09.295Z,1.70
2023-08-16T10:25:25.558Z,1.80
2023-08-16T10:28:29.623Z,1.70
2023-08-16T10:31:36.278Z,1.77
2023-08-16T10:34:41.169Z,1.58
2023-08-16T10:37:47.450Z,1.42
2023-08-16T10:41:13.522Z,1.65
2023-08-16T10:44:24.142Z,1.83
2023-08-16T10:47:30.068Z,1.52
2023-08-16T10:50:36.431Z,1.58
2023-08-16T10:53:40.702Z,1.52
2023-08-16T10:56:48.723Z,1.33
2023-08-16T10:59:51.561Z,1.40
2023-08-16T11:02:56.218Z,1.40
2023-08-16T11:06:00.303Z,1.30
2023-08-16T11:09:03.725Z,1.67
2023-08-16T11:12:08.525Z,1.42
2023-08-16T11:15:11.630Z,1.48
2023-08-16T11:18:16.719Z,1.65
2023-08-16T11:21:21.720Z,1.35
2023-08-16T11:24:26.024Z,1.48
2023-08-16T11:27:30.203Z,1.33
2023-08-16T11:30:33.390Z,1.20
2023-08-16T11:33:37.218Z,1.42
2023-08-16T11:36:40.061Z,1.55
2023-08-16T11:39:43.316Z,1.15
2023-08-16T11:42:47.434Z,1.30
2023-08-16T11:45:53.993Z,1.10
2023-08-16T11:48:56.925Z,1.20
2023-08-16T11:52:01.118Z,1.30
2023-08-16T11:55:06.002Z,1.23
2023-08-16T11:58:10.960Z,1.10
2023-08-16T12:01:15.631Z,1.02
2023-08-16T12:04:19.207Z,1.38
2023-08-16T12:07:22.021Z,1.25
2023-08-16T12:10:26.222Z,1.50
2023-08-16T12:13:30.494Z,1.40
2023-08-16T12:16:33.441Z,1.42
2023-08-16T12:19:36.790Z,1.30
2023-08-16T12:22:39.459Z,1.65
2023-08-16T12:25:42.185Z,1.23
2023-08-16T12:28:46.341Z,1.17
2023-08-16T12:31:49.034Z,1.00
2023-08-16T12:35:00.760Z,1.50
2023-08-16T12:38:04.990Z,1.52
2023-08-16T12:41:08.429Z,1.42
2023-08-16T12:44:13.465Z,1.45
2023-08-16T12:47:16.141Z,1.52
2023-08-16T12:50:18.768Z,1.42
2023-08-16T12:56:26.888Z,1.40
2023-08-16T12:59:31.145Z,1.58
2023-08-16T13:02:37.436Z,1.50
2023-08-16T13:05:57.703Z,1.65
2023-08-16T13:09:04.466Z,1.70
2023-08-16T13:12:10.719Z,1.50
2023-08-16T13:15:26.302Z,1.75
2023-08-16T13:18:44.614Z,1.65
2023-08-16T13:28:02.578Z,1.40
2023-08-16T13:31:12.423Z,1.80
2023-08-16T13:37:26.872Z,1.45
2023-08-16T13:46:42.196Z,1.50
2023-08-16T13:49:46.644Z,1.55
2023-08-16T13:52:49.346Z,1.30
2023-08-16T13:55:51.973Z,1.48
2023-08-16T13:58:54.710Z,1.30
2023-08-16T14:01:58.718Z,1.40
2023-08-16T14:05:01.421Z,1.48
2023-08-16T14:08:04.229Z,1.60
2023-08-16T14:11:07.015Z,1.30
2023-08-16T14:14:09.677Z,1.60
2023-08-16T14:17:13.737Z,1.33
2023-08-16T14:20:16.387Z,1.45
2023-08-16T14:23:19.400Z,1.42
2023-08-16T14:26:22.583Z,1.55
2023-08-16T14:29:25.203Z,1.55
2023-08-16T14:32:29.202Z,1.55
2023-08-16T14:35:32.046Z,1.65
2023-08-16T14:38:37.623Z,1.65
2023-08-16T14:41:45.698Z,1.58
2023-08-16T14:44:48.474Z,1.42
2023-08-16T14:47:52.550Z,1.40
2023-08-16T14:50:55.177Z,1.55
2023-08-16T14:53:57.808Z,1.23
2023-08-16T14:57:00.438Z,1.75
2023-08-16T15:00:04.625Z,1.42
2023-08-16T15:03:08.689Z,1.30
2023-08-16T15:06:11.554Z,1.40
2023-08-16T15:09:14.723Z,1.75
2023-08-16T15:12:18.491Z,1.40
2023-08-16T15:15:23.602Z,1.45
2023-08-16T15:18:27.782Z,1.60
2023-08-16T15:21:30.405Z,1.40
2023-08-16T15:24:33.057Z,1.40
2023-08-16T15:27:36.882Z,3.13
2023-08-16T15:30:39.505Z,1.70
2023-08-16T15:33:43.480Z,2.95
2023-08-16T15:36:46.155Z,1.92
2023-08-16T15:39:48.816Z,2.33
2023-08-16T15:42:51.481Z,2.20
2023-08-16T15:45:54.144Z,2.35
2023-08-16T15:48:58.164Z,1.70
2023-08-16T15:52:00.832Z,5.63
2023-08-16T15:55:03.497Z,1.95
2023-08-16T15:58:06.157Z,1.70
2023-08-16T16:01:09.002Z,3.78
2023-08-16T16:04:13.196Z,2.10
2023-08-16T16:07:15.890Z,2.15
2023-08-16T16:10:18.736Z,2.45
2023-08-16T16:13:21.371Z,2.15
2023-08-16T16:16:24.031Z,1.80
2023-08-16T16:19:28.020Z,2.47
2023-08-16T16:22:30.652Z,1.70
2023-08-16T16:25:33.311Z,2.10
2023-08-16T16:28:36.324Z,2.00
2023-08-16T16:31:40.906Z,2.20
2023-08-16T16:34:44.986Z,4.03
2023-08-16T16:37:48.496Z,4.53
2023-08-16T16:40:51.222Z,2.47
2023-08-16T16:43:53.866Z,3.10
2023-08-16T16:46:56.498Z,2.22
2023-08-16T16:50:00.557Z,1.70
2023-08-16T16:53:03.997Z,1.50
2023-08-16T16:56:06.644Z,1.52
2023-08-16T16:59:09.355Z,1.45
2023-08-16T17:02:12.158Z,1.90
2023-08-16T17:05:16.266Z,3.40
2023-08-16T17:08:18.903Z,1.90
2023-08-16T17:11:21.516Z,1.88
2023-08-16T17:14:24.372Z,1.85
2023-08-16T17:17:27.477Z,1.85
2023-08-16T17:20:32.986Z,1.83
2023-08-16T17:23:35.645Z,1.58
2023-08-16T17:26:38.281Z,1.85
2023-08-16T17:29:40.987Z,2.03
2023-08-16T17:32:44.510Z,1.52
2023-08-16T17:35:48.537Z,1.95
2023-08-16T17:38:51.900Z,1.60
2023-08-16T17:41:54.608Z,1.80
2023-08-16T17:44:57.244Z,1.67
2023-08-16T17:47:59.893Z,1.50
2023-08-16T17:51:04.134Z,1.52
2023-08-16T17:54:07.961Z,1.65
2023-08-16T17:57:10.707Z,1.65
2023-08-16T18:00:14.726Z,1.50
2023-08-16T18:03:17.670Z,1.38
2023-08-16T18:06:21.650Z,1.50
2023-08-16T18:09:24.308Z,1.30
2023-08-16T18:12:26.953Z,1.40
2023-08-16T18:15:29.608Z,1.65
2023-08-16T18:18:32.299Z,1.85
2023-08-16T18:21:36.500Z,1.50
2023-08-16T18:24:39.170Z,1.52
2023-08-16T18:27:41.821Z,1.70
2023-08-16T18:30:44.971Z,1.30
2023-08-16T18:33:47.636Z,1.38
2023-08-16T18:36:51.600Z,1.58
2023-08-16T18:39:54.850Z,1.65
2023-08-16T18:42:57.472Z,1.48
2023-08-16T18:46:00.388Z,1.40
2023-08-16T18:49:03.071Z,1.33
2023-08-16T18:52:07.603Z,1.50
2023-08-16T18:55:10.838Z,1.50
2023-08-16T18:58:13.475Z,1.50
2023-08-16T19:01:18.479Z,1.20
2023-08-16T19:04:21.508Z,1.50
2023-08-16T19:07:25.771Z,1.60
2023-08-16T19:10:30.290Z,1.55
2023-08-16T19:13:32.986Z,1.60
2023-08-16T19:16:35.687Z,1.67
2023-08-16T19:19:38.344Z,1.50
2023-08-16T19:22:42.355Z,1.73
2023-08-16T19:25:44.979Z,4.82
2023-08-16T19:28:47.647Z,2.22
2023-08-16T19:31:50.261Z,1.73
2023-08-16T19:34:52.915Z,1.55
2023-08-16T19:37:56.955Z,2.00
2023-08-16T19:40:59.603Z,1.90
2023-08-16T19:44:02.573Z,2.05
2023-08-16T19:47:05.660Z,1.80
2023-08-16T19:50:19.423Z,1.95
2023-08-16T19:53:23.480Z,1.80
2023-08-16T19:56:26.115Z,1.70
2023-08-16T19:59:28.749Z,1.58
2023-08-16T20:02:31.573Z,1.60
2023-08-16T20:05:34.542Z,2.08
2023-08-16T20:08:38.555Z,2.47
2023-08-16T20:11:41.233Z,2.63
2023-08-16T20:14:43.855Z,2.10
2023-08-16T20:17:46.568Z,2.70
2023-08-16T20:20:49.744Z,2.60
2023-08-16T20:23:53.740Z,2.67
2023-08-16T20:26:56.391Z,4.17
2023-08-16T20:29:59.042Z,2.80
2023-08-16T20:33:01.863Z,3.03
2023-08-16T20:36:05.756Z,3.80
2023-08-16T20:39:09.882Z,3.90
2023-08-16T20:42:12.518Z,2.30
2023-08-16T20:45:15.163Z,2.27
2023-08-16T20:48:17.805Z,2.10
2023-08-16T20:51:20.441Z,2.23
2023-08-16T20:54:24.428Z,2.00
2023-08-16T20:57:27.619Z,2.25
2023-08-16T21:00:30.414Z,2.00
2023-08-16T21:03:33.053Z,2.20
2023-08-16T21:06:35.806Z,2.33
2023-08-16T21:09:39.802Z,2.07
2023-08-16T21:12:42.413Z,2.15
2023-08-16T21:15:45.092Z,2.60
2023-08-16T21:18:47.710Z,2.20
2023-08-16T21:21:50.495Z,2.07
2023-08-16T21:24:54.698Z,2.13
2023-08-16T21:27:57.333Z,2.00
2023-08-16T21:31:00.054Z,2.13
2023-08-16T21:34:08.089Z,2.40
2023-08-16T21:37:10.731Z,1.90
2023-08-16T21:40:14.925Z,2.23
2023-08-16T21:43:17.560Z,2.40
2023-08-16T21:46:20.231Z,2.00
2023-08-16T21:49:22.891Z,2.30
2023-08-16T21:52:25.656Z,2.00
2023-08-16T21:55:29.659Z,2.50
2023-08-16T21:58:32.324Z,2.00
2023-08-16T22:01:35.080Z,1.67
2023-08-16T22:04:37.826Z,1.80
2023-08-16T22:07:42.384Z,1.80
2023-08-16T22:10:46.674Z,1.70
2023-08-16T22:13:49.367Z,1.80
2023-08-16T22:16:52.046Z,1.80
2023-08-16T22:19:54.766Z,1.80
2023-08-16T22:22:57.495Z,1.98
2023-08-16T22:26:01.535Z,1.63
2023-08-16T22:29:05.018Z,1.90
2023-08-16T22:32:07.869Z,2.03
2023-08-16T22:35:11.011Z,1.87
2023-08-16T22:38:16.437Z,2.00
2023-08-16T22:41:20.638Z,1.90
2023-08-16T22:44:23.302Z,1.87
2023-08-16T22:47:26.125Z,1.97
2023-08-16T22:50:31.244Z,1.73
2023-08-16T22:53:33.900Z,2.17
2023-08-16T22:56:37.880Z,2.00
2023-08-16T22:59:40.595Z,1.60
2023-08-16T23:02:43.312Z,2.20
2023-08-16T23:05:45.969Z,1.90
2023-08-16T23:08:48.618Z,1.60
2023-08-16T23:11:52.636Z,2.07
2023-08-16T23:14:55.260Z,1.97
2023-08-16T23:17:57.912Z,2.47
2023-08-16T23:21:00.577Z,2.37
2023-08-16T23:24:03.240Z,2.03
2023-08-16T23:27:07.265Z,1.80
2023-08-16T23:30:10.873Z,2.03
2023-08-16T23:33:13.508Z,1.90
2023-08-16T23:36:16.218Z,2.00
2023-08-16T23:39:18.890Z,2.00
2023-08-16T23:42:24.203Z,2.00
2023-08-16T23:45:26.876Z,1.97
2023-08-16T23:48:29.589Z,2.07
2023-08-16T23:51:32.302Z,2.10
2023-08-16T23:54:37.014Z,2.30
2023-08-16T23:57:41.010Z,2.10
